Flight Track Log - Related Links

Times and Time Zones

All times are in EDT time to prevent confusion due to time zone crossing. See the SWA558 flight status page for this flight to view local times or setup timezone preferences in your user account.

Time Position Orientation Groundspeed Altitude Reporting Facility
EDT Latitude Longitude Course Direction KTS MPH feet Rate Location/Type
Sun 03:51:30 PM 41.7539 -87.6983 128° Southeast 174 200 3,400  Level Chicago Center
Sun 03:52:31 PM 41.7139 -87.6306 128° Southeast 209 241 5,900 1,220 Climbing Chicago Center
Sun 03:53:33 PM 41.6517 -87.6633 201° Southwest 250 288 5,900 968 Level Chicago Center
Sun 03:54:35 PM 41.6014 -87.7319 226° Southwest 257 296 7,900 1,452 Climbing Chicago Center
Sun 03:55:37 PM 41.5531 -87.8067 229° Southwest 268 308 8,900 484 Climbing Chicago Center
Sun 03:56:39 PM 41.5183 -87.8933 242° Southwest 268 308 8,900 968 Level Chicago Center
Sun 03:57:41 PM 41.4747 -87.9983 241° Southwest 272 313 10,900 1,258 Climbing Chicago Center
Sun 03:58:43 PM 41.4417 -88.0839 243° Southwest 277 319 11,500 1,258 Climbing Chicago Center
Sun 03:59:45 PM 41.3781 -88.1522 219° Southwest 330 380 13,500 2,565 Climbing Chicago Center
Sun 04:00:47 PM 41.2711 -88.2067 201° Southwest 348 400 16,800 2,661 Climbing Chicago Center
Sun 04:01:49 PM 41.1828 -88.2694 208° Southwest 358 412 19,000 2,274 Climbing Chicago Center
Sun 04:02:51 PM 41.0839 -88.3133 198° South 374 430 21,500 2,419 Climbing Chicago Center
Sun 04:03:53 PM 40.9822 -88.3608 199° South 387 445 24,000 2,323 Climbing Chicago Center
Sun 04:04:55 PM 40.8756 -88.4111 200° South 403 464 26,300 2,226 Climbing Chicago Center
Sun 04:05:57 PM 40.7444 -88.4700 199° South 415 478 28,600 1,968 Climbing Chicago Center
Sun 04:07:00 PM 40.6317 -88.5219 199° South 428 493 30,400 1,632 Climbing Chicago Center
Sun 04:08:02 PM 40.5189 -88.5728 199° South 431 496 32,000 774 Climbing Chicago Center
Sun 04:09:04 PM 40.3933 -88.6328 200° South 427 491 32,000  Level Chicago Center
Sun 04:10:06 PM 40.2883 -88.7031 207° Southwest 432 497 32,000  Level Chicago Center
Sun 04:11:08 PM 40.2058 -88.8086 224° Southwest 418 481 32,000  Level Chicago Center
Sun 04:12:10 PM 40.1239 -88.9139 225° Southwest 413 475 32,000  Level Chicago Center
Sun 04:13:09 PM 40.0394 -89.0206 224° Southwest 414 476 32,000  Level Kansas City Center
Sun 04:14:10 PM 39.9544 -89.1275 224° Southwest 420 483 32,000  Level Kansas City Center
Sun 04:15:12 PM 39.8439 -89.1869 202° Southwest 431 496 32,000 384 Level Kansas City Center
Sun 04:16:15 PM 39.7394 -89.2617 209° Southwest 434 499 32,800 1,258 Climbing Kansas City Center
Sun 04:17:16 PM 39.6553 -89.3686 224° Southwest 418 481 34,600 1,500 Climbing Kansas City Center
Sun 04:18:19 PM 39.5694 -89.4733 223° Southwest 422 486 35,900 677 Climbing Kansas City Center
Sun 04:19:20 PM 39.4686 -89.6003 224° Southwest 423 487 36,000 48 Climbing Kansas City Center
Sun 04:20:24 PM 39.3842 -89.7058 224° Southwest 423 487 36,000 520 Level Kansas City Center
Sun 04:21:27 PM 39.2994 -89.8081 223° Southwest 420 483 37,100 960 Climbing Kansas City Center
Sun 04:22:29 PM 39.2169 -89.9108 224° Southwest 417 480 38,000 439 Climbing Kansas City Center
Sun 04:23:30 PM 39.1325 -90.0156 224° Southwest 418 481 38,000  Level Kansas City Center
Sun 04:24:31 PM 39.0489 -90.1183 224° Southwest 418 481 38,000  Level Kansas City Center
Sun 04:25:34 PM 38.9467 -90.2419 223° Southwest 421 484 38,000  Level Kansas City Center
Sun 04:26:35 PM 38.8586 -90.3497 224° Southwest 417 480 38,000  Level Kansas City Center
Sun 04:27:39 PM 38.7711 -90.4544 223° Southwest 423 487 38,000  Level Kansas City Center
Sun 04:28:38 PM 38.6839 -90.5542 222° Southwest 419 482 38,000  Level Kansas City Center
Sun 04:29:42 PM 38.5986 -90.6575 223° Southwest 420 483 38,000  Level Kansas City Center
Sun 04:30:45 PM 38.5094 -90.7647 223° Southwest 420 483 38,000  Level Kansas City Center
Sun 04:31:45 PM 38.4242 -90.8656 223° Southwest 419 482 38,000  Level Kansas City Center
Sun 04:32:48 PM 38.3392 -90.9678 223° Southwest 420 483 38,000  Level Kansas City Center
Sun 04:33:50 PM 38.2547 -91.0661 222° Southwest 415 478 38,000  Level Kansas City Center
Sun 04:34:53 PM 38.1539 -91.1850 223° Southwest 416 479 38,000  Level Kansas City Center
Sun 04:35:53 PM 38.0675 -91.2856 223° Southwest 417 480 38,000  Level Kansas City Center
Sun 04:36:55 PM 37.9817 -91.3875 223° Southwest 417 480 38,000  Level Kansas City Center
Sun 04:37:57 PM 37.8939 -91.4894 223° Southwest 421 484 38,000  Level Kansas City Center
Sun 04:39:01 PM 37.8047 -91.5914 222° Southwest 425 489 38,000  Level Kansas City Center
Sun 04:40:01 PM 37.7158 -91.6947 223° Southwest 429 494 38,000  Level Kansas City Center
Sun 04:41:04 PM 37.6283 -91.7964 223° Southwest 426 490 38,000  Level Kansas City Center
Sun 04:42:06 PM 37.5250 -91.9144 222° Southwest 417 480 38,000  Level Kansas City Center
Sun 04:43:09 PM 37.4389 -92.0139 223° Southwest 416 479 38,000  Level Kansas City Center
Sun 04:44:11 PM 37.3531 -92.1136 223° Southwest 417 480 38,000  Level Kansas City Center
Sun 04:45:13 PM 37.2667 -92.2108 222° Southwest 415 478 38,000  Level Kansas City Center
Sun 04:46:13 PM 37.1803 -92.3094 222° Southwest 415 478 38,000  Level Kansas City Center
Sun 04:47:17 PM 37.0922 -92.4089 222° Southwest 419 482 38,000  Level Kansas City Center
Sun 04:48:18 PM 37.0036 -92.5083 222° Southwest 422 486 38,000  Level Kansas City Center
Sun 04:49:19 PM 36.9136 -92.6092 222° Southwest 428 493 38,000  Level Kansas City Center
Sun 04:50:21 PM 36.8072 -92.7292 222° Southwest 429 494 38,000  Level Kansas City Center
Sun 04:51:22 PM 36.7178 -92.8289 222° Southwest 425 489 38,000  Level Memphis Center
Sun 04:52:22 PM 36.6283 -92.9297 222° Southwest 425 489 38,000  Level Memphis Center
Sun 04:53:22 PM 36.5408 -93.0275 222° Southwest 425 489 38,000  Level Memphis Center
Sun 04:54:22 PM 36.4511 -93.1225 220° Southwest 425 489 38,000  Level Memphis Center
Sun 04:55:22 PM 36.3614 -93.2200 221° Southwest 425 489 38,000  Level Memphis Center
Sun 04:56:22 PM 36.2736 -93.3147 221° Southwest 425 489 38,000  Level Memphis Center
Sun 04:57:22 PM 36.1858 -93.4119 222° Southwest 420 483 38,000  Level Memphis Center
Sun 04:58:22 PM 36.1000 -93.5089 222° Southwest 425 489 38,000  Level Memphis Center
Sun 04:59:22 PM 36.0100 -93.6056 221° Southwest 425 489 38,000  Level Memphis Center
Sun 05:00:22 PM 35.9222 -93.6969 220° Southwest 420 483 38,000  Level Memphis Center
Sun 05:01:22 PM 35.8425 -93.7858 222° Southwest 428 493 38,000  Level Memphis Center
Sun 05:02:22 PM 35.7544 -93.8794 221° Southwest 428 493 38,000  Level Memphis Center
Sun 05:03:22 PM 35.6642 -93.9753 221° Southwest 428 493 38,000  Level Memphis Center
Sun 05:04:22 PM 35.5778 -94.0711 222° Southwest 423 487 38,000  Level Memphis Center
Sun 05:05:22 PM 35.4875 -94.1664 221° Southwest 423 487 38,000  Level Memphis Center
Sun 05:06:22 PM 35.3969 -94.2617 221° Southwest 423 487 38,000  Level Memphis Center
Sun 05:07:22 PM 35.2942 -94.3408 212° Southwest 428 493 38,000  Level Memphis Center
Sun 05:08:22 PM 35.1956 -94.4225 214° Southwest 433 498 38,000  Level Memphis Center
Sun 05:09:22 PM 35.0953 -94.4964 211° Southwest 433 498 38,000  Level Memphis Center
Sun 05:10:07 PM 35.0089 -94.5617 212° Southwest 432 497 38,000  Level Fort Worth Center
Sun 05:11:07 PM 34.9106 -94.6386 213° Southwest 427 491 38,000  Level Fort Worth Center
Sun 05:12:07 PM 34.8100 -94.7153 212° Southwest 427 491 38,000  Level Fort Worth Center
Sun 05:13:07 PM 34.7114 -94.7889 212° Southwest 427 491 38,000  Level Fort Worth Center
Sun 05:14:07 PM 34.6128 -94.8653 213° Southwest 422 486 38,000  Level Fort Worth Center
Sun 05:15:07 PM 34.5161 -94.9386 212° Southwest 417 480 38,000  Level Fort Worth Center
Sun 05:16:07 PM 34.4194 -95.0094 211° Southwest 422 486 38,000  Level Fort Worth Center
Sun 05:17:07 PM 34.3228 -95.0800 211° Southwest 422 486 38,000  Level Fort Worth Center
Sun 05:18:07 PM 34.2261 -95.1528 212° Southwest 422 486 38,000  Level Fort Worth Center
Sun 05:19:07 PM 34.1314 -95.2256 212° Southwest 422 486 38,000  Level Fort Worth Center
Sun 05:20:07 PM 34.0344 -95.2931 210° Southwest 416 479 38,000  Level Fort Worth Center
Sun 05:21:07 PM 33.9375 -95.3656 212° Southwest 416 479 38,000  Level Fort Worth Center
Sun 05:22:07 PM 33.8406 -95.4378 212° Southwest 416 479 38,000  Level Fort Worth Center
Sun 05:23:07 PM 33.7458 -95.5100 212° Southwest 416 479 38,000  Level Fort Worth Center
Sun 05:24:07 PM 33.6444 -95.5794 210° Southwest 416 479 38,000  Level Fort Worth Center
Sun 05:25:07 PM 33.5475 -95.6514 212° Southwest 416 479 38,000  Level Fort Worth Center
Sun 05:26:07 PM 33.4544 -95.7206 212° Southwest 416 479 38,000  Level Fort Worth Center
Sun 05:27:07 PM 33.3553 -95.7894 210° Southwest 416 479 38,000  Level Fort Worth Center
Sun 05:28:07 PM 33.2600 -95.8583 211° Southwest 405 466 38,000  Level Fort Worth Center
Sun 05:29:07 PM 33.1669 -95.9269 212° Southwest 405 466 38,000  Level Fort Worth Center
Sun 05:30:07 PM 33.0717 -95.9953 211° Southwest 405 466 38,000  Level Fort Worth Center
Sun 05:31:07 PM 32.9847 -96.0586 211° Southwest 405 466 38,000  Level Fort Worth Center
Sun 05:32:07 PM 32.8872 -96.1269 210° Southwest 405 466 38,000  Level Fort Worth Center
Sun 05:33:07 PM 32.7919 -96.1975 212° Southwest 405 466 38,000  Level Fort Worth Center
Sun 05:34:07 PM 32.6944 -96.2656 210° Southwest 410 472 38,000  Level Fort Worth Center
Sun 05:35:07 PM 32.5969 -96.3333 210° Southwest 410 472 38,000  Level Fort Worth Center
Sun 05:36:07 PM 32.4911 -96.4086 211° Southwest 410 472 38,000 -500 Level Fort Worth Center
Sun 05:37:07 PM 32.3914 -96.4786 211° Southwest 410 472 37,000 -1,000 Descending Fort Worth Center
Sun 05:38:07 PM 32.3000 -96.5458 212° Southwest 404 465 36,000 -1,000 Descending Fort Worth Center
Sun 05:39:07 PM 32.2044 -96.6131 211° Southwest 410 472 35,000 -950 Descending Fort Worth Center
Sun 05:40:07 PM 32.1111 -96.6800 211° Southwest 410 472 34,100 -950 Descending Fort Worth Center
Sun 05:41:07 PM 32.0153 -96.7444 210° Southwest 410 472 33,100 -1,400 Descending Fort Worth Center
Sun 05:42:07 PM 31.9197 -96.8161 212° Southwest 405 466 31,300 -1,900 Descending Fort Worth Center
Sun 05:43:07 PM 31.8197 -96.8853 210° Southwest 411 473 29,300 -2,050 Descending Fort Worth Center
Sun 05:44:07 PM 31.7219 -96.9492 209° Southwest 411 473 27,200 -1,950 Descending Fort Worth Center
Sun 05:45:07 PM 31.6261 -97.0181 211° Southwest 406 467 25,400 -1,400 Descending Fort Worth Center
Sun 05:46:07 PM 31.5322 -97.0819 210° Southwest 406 467 24,400 -891 Descending Fort Worth Center
Sun 05:46:48 PM 31.4589 -97.1111 199° South 400 460 23,900 -990 Descending Houston Center
Sun 05:47:50 PM 31.3542 -97.1522 199° South 396 456 22,700 -919 Descending Houston Center
Sun 05:48:52 PM 31.2519 -97.1919 198° South 386 444 22,000 -774 Descending Houston Center
Sun 05:49:54 PM 31.1506 -97.2319 199° South 382 440 21,100 -1,887 Descending Houston Center
Sun 05:50:56 PM 31.0475 -97.2719 198° South 388 447 18,100 -2,468 Descending Houston Center
Sun 05:51:58 PM 30.9478 -97.3100 198° South 390 449 16,000 -2,661 Descending Houston Center
Sun 05:53:00 PM 30.8339 -97.3553 199° South 376 433 12,600 -2,758 Descending Houston Center
Sun 05:54:02 PM 30.7431 -97.3889 198° South 350 403 10,300 -1,488 Descending Houston Center
Sun 05:55:05 PM 30.6717 -97.4306 207° Southwest 295 339 9,500 -1,248 Descending Houston Center
Sun 05:56:07 PM 30.6192 -97.4906 225° Southwest 267 307 7,700 -1,645 Descending Houston Center
Sun 05:57:09 PM 30.5608 -97.5439 218° Southwest 266 306 6,100 -1,694 Descending Houston Center
Sun 05:58:11 PM 30.4814 -97.5833 203° Southwest 265 305 4,200 -1,500 Descending Houston Center
Sun 05:59:13 PM 30.4142 -97.6181 204° Southwest 262 302 3,000 -726 Descending Houston Center
Sun 06:00:15 PM 30.3558 -97.6478 204° Southwest 240 276 2,700 -435 Descending Houston Center
Sun 06:01:17 PM 30.3006 -97.6767 204° Southwest 221 254 2,100 -629 Descending Houston Center
Sun 06:02:19 PM 30.2553 -97.6792 183° South 181 208 1,400 -677 Descending Houston Center

Login

Don't have an account? Register now (free) for customized features, flight alerts, and more!